Time;durP1;ratioP1;P1;durP2;ratioP2;P2;SDS_P1;SDS_P2;PMS_P1;PMS_P2;Temp;Humidity;BMP_temperature;BMP_pressure;BME280_temperature;BME280_humidity;BME280_pressure;Samples;Min_cycle;Max_cycle;Signal;HPM_P1;HPM_P2
2023/07/22 00:01:42;;;;;;;9.20;7.53;;;;;;;;;;5052195;28;20076;-61
2023/07/22 00:04:09;;;;;;;9.43;7.50;;;;;;;;;;5049281;28;20072;-61
2023/07/22 00:06:35;;;;;;;9.82;7.47;;;;;;;;;;5043352;28;20049;-62
2023/07/22 00:09:03;;;;;;;10.13;7.20;;;;;;;;;;5052623;28;20056;-62
2023/07/22 00:11:30;;;;;;;9.40;7.50;;;;;;;;;;5054287;28;20071;-61
2023/07/22 00:13:58;;;;;;;9.13;7.47;;;;;;;;;;5056401;28;20394;-61
2023/07/22 00:16:25;;;;;;;9.93;7.88;;;;;;;;;;5054434;28;20049;-61
2023/07/22 00:18:52;;;;;;;9.77;7.90;;;;;;;;;;5053310;28;20049;-61
2023/07/22 00:21:19;;;;;;;8.70;7.20;;;;;;;;;;5042823;28;20053;-61
2023/07/22 00:23:47;;;;;;;9.02;7.57;;;;;;;;;;5074883;28;20057;-62
2023/07/22 00:26:13;;;;;;;9.77;7.50;;;;;;;;;;5069632;28;20402;-61
2023/07/22 00:28:41;;;;;;;13.32;8.25;;;;;;;;;;5056357;28;20060;-61
2023/07/22 00:31:09;;;;;;;9.85;7.78;;;;;;;;;;5055751;28;20048;-61
2023/07/22 00:33:36;;;;;;;9.77;7.47;;;;;;;;;;5055256;28;20131;-61
2023/07/22 00:36:03;;;;;;;12.15;8.60;;;;;;;;;;5046875;28;20072;-61
2023/07/22 00:38:29;;;;;;;9.05;7.65;;;;;;;;;;5050450;28;20405;-61
2023/07/22 00:40:56;;;;;;;10.88;8.68;;;;;;;;;;5047473;28;20056;-61
2023/07/22 00:43:25;;;;;;;11.38;8.35;;;;;;;;;;5049740;28;20049;-61
2023/07/22 00:45:52;;;;;;;10.82;8.30;;;;;;;;;;5048084;28;20485;-61
2023/07/22 00:48:20;;;;;;;9.88;7.75;;;;;;;;;;5041943;28;20057;-61
2023/07/22 00:50:47;;;;;;;11.38;8.02;;;;;;;;;;5039837;28;20049;-61
2023/07/22 00:53:14;;;;;;;9.48;7.68;;;;;;;;;;5034829;28;20065;-61
2023/07/22 00:55:41;;;;;;;9.57;7.32;;;;;;;;;;5039411;28;20478;-62
2023/07/22 00:58:08;;;;;;;11.75;7.68;;;;;;;;;;5035520;28;20060;-61
2023/07/22 01:00:35;;;;;;;9.15;7.53;;;;;;;;;;5043167;28;20064;-61
2023/07/22 01:03:02;;;;;;;10.07;7.80;;;;;;;;;;5051437;28;20159;-61
2023/07/22 01:05:31;;;;;;;9.20;7.88;;;;;;;;;;5038649;28;20068;-61
2023/07/22 01:07:58;;;;;;;9.85;7.72;;;;;;;;;;5049959;28;20057;-61
2023/07/22 01:10:25;;;;;;;11.02;7.32;;;;;;;;;;5041300;28;20052;-61
2023/07/22 01:12:51;;;;;;;10.20;7.70;;;;;;;;;;5054121;28;20418;-61
2023/07/22 01:15:18;;;;;;;12.45;8.25;;;;;;;;;;5054806;28;20068;-61
2023/07/22 01:17:45;;;;;;;12.88;9.02;;;;;;;;;;5041607;28;20055;-61
2023/07/22 01:20:13;;;;;;;10.75;8.95;;;;;;;;;;5049304;28;20057;-61
2023/07/22 01:22:43;;;;;;;12.07;8.07;;;;;;;;;;5045054;28;20057;-61
2023/07/22 01:25:11;;;;;;;9.18;7.70;;;;;;;;;;5054139;28;20060;-61
2023/07/22 01:27:38;;;;;;;10.77;8.00;;;;;;;;;;5049235;28;20057;-61
2023/07/22 01:30:06;;;;;;;9.93;7.43;;;;;;;;;;5048794;28;20052;-61
2023/07/22 01:32:33;;;;;;;10.27;7.75;;;;;;;;;;5035838;28;20072;-61
2023/07/22 01:35:00;;;;;;;10.32;7.85;;;;;;;;;;5052764;28;20053;-61
2023/07/22 01:37:27;;;;;;;11.10;8.38;;;;;;;;;;5050951;28;20049;-61
2023/07/22 01:39:56;;;;;;;9.40;8.13;;;;;;;;;;5044063;28;20057;-61
2023/07/22 01:42:23;;;;;;;;;;;;;;;;;;5047141;28;20458;-61
2023/07/22 01:44:51;;;;;;;10.57;7.60;;;;;;;;;;5034408;28;20309;-61
2023/07/22 01:47:18;;;;;;;9.50;7.57;;;;;;;;;;5034808;28;20061;-61
2023/07/22 01:49:45;;;;;;;9.18;7.43;;;;;;;;;;5037708;28;20045;-61
2023/07/22 01:52:11;;;;;;;9.93;8.07;;;;;;;;;;5053647;28;20490;-61
2023/07/22 01:54:38;;;;;;;8.80;7.63;;;;;;;;;;5037253;28;20049;-61
2023/07/22 01:57:05;;;;;;;9.23;7.63;;;;;;;;;;5053041;28;20482;-61
2023/07/22 01:59:32;;;;;;;10.13;7.65;;;;;;;;;;5051875;28;20049;-62
2023/07/22 02:02:00;;;;;;;9.70;8.38;;;;;;;;;;5034582;28;20050;-61
2023/07/22 02:04:27;;;;;;;14.43;8.48;;;;;;;;;;5049835;28;20414;-61
2023/07/22 02:06:54;;;;;;;9.70;7.65;;;;;;;;;;5033862;28;20053;-62
2023/07/22 02:09:21;;;;;;;9.95;7.70;;;;;;;;;;5042984;28;20056;-61
2023/07/22 02:11:48;;;;;;;9.90;8.48;;;;;;;;;;5051144;28;20057;-61
2023/07/22 02:14:15;;;;;;;11.00;8.38;;;;;;;;;;5045355;28;20475;-61
2023/07/22 02:16:41;;;;;;;10.63;7.65;;;;;;;;;;5054031;28;20497;-62
2023/07/22 02:19:10;;;;;;;11.23;7.88;;;;;;;;;;5051003;28;20048;-61
2023/07/22 02:21:36;;;;;;;10.63;8.18;;;;;;;;;;5041137;28;20060;-61
2023/07/22 02:24:03;;;;;;;11.93;8.45;;;;;;;;;;5073982;28;20049;-61
2023/07/22 02:26:30;;;;;;;9.75;7.78;;;;;;;;;;5065389;28;20390;-62
2023/07/22 02:28:57;;;;;;;10.18;8.38;;;;;;;;;;5054093;28;20068;-61
2023/07/22 02:31:25;;;;;;;10.15;8.27;;;;;;;;;;5054427;28;20048;-60
2023/07/22 02:33:51;;;;;;;9.35;8.30;;;;;;;;;;5052772;28;20064;-59
2023/07/22 02:36:20;;;;;;;9.90;8.55;;;;;;;;;;5051937;28;20060;-59
2023/07/22 02:38:46;;;;;;;10.05;8.55;;;;;;;;;;5052466;28;20057;-60
2023/07/22 02:41:13;;;;;;;11.13;8.73;;;;;;;;;;5039223;28;20057;-60
2023/07/22 02:43:41;;;;;;;10.27;8.40;;;;;;;;;;5052179;28;20053;-59
2023/07/22 02:46:08;;;;;;;10.38;8.25;;;;;;;;;;5040032;28;20053;-60
2023/07/22 02:48:36;;;;;;;10.38;8.50;;;;;;;;;;5037748;28;20053;-60
2023/07/22 02:51:04;;;;;;;10.35;8.55;;;;;;;;;;5041440;28;20069;-59
2023/07/22 02:53:33;;;;;;;8.45;7.53;;;;;;;;;;5032819;28;20072;-59
2023/07/22 02:56:00;;;;;;;11.35;8.38;;;;;;;;;;5034753;28;20064;-60
2023/07/22 02:58:27;;;;;;;9.57;7.70;;;;;;;;;;5033302;28;20049;-61
2023/07/22 03:00:53;;;;;;;10.80;7.60;;;;;;;;;;5035991;28;20049;-61
2023/07/22 03:03:20;;;;;;;10.90;8.35;;;;;;;;;;5044280;28;20399;-61
2023/07/22 03:05:47;;;;;;;9.30;8.25;;;;;;;;;;5032522;28;20394;-61
2023/07/22 03:08:14;;;;;;;12.48;7.93;;;;;;;;;;5050822;28;20049;-61
2023/07/22 03:10:43;;;;;;;11.50;7.75;;;;;;;;;;5047312;28;20049;-61
2023/07/22 03:13:10;;;;;;;9.60;7.90;;;;;;;;;;5042530;28;20052;-61
2023/07/22 03:15:37;;;;;;;8.75;7.40;;;;;;;;;;5052722;28;20506;-61
2023/07/22 03:18:04;;;;;;;11.10;7.88;;;;;;;;;;5048879;28;20052;-61
2023/07/22 03:20:31;;;;;;;10.02;7.43;;;;;;;;;;5051591;28;20056;-61
2023/07/22 03:22:59;;;;;;;9.85;8.20;;;;;;;;;;5050141;28;20049;-61
2023/07/22 03:25:25;;;;;;;12.00;8.23;;;;;;;;;;5049962;28;20049;-62
2023/07/22 03:27:54;;;;;;;9.88;7.88;;;;;;;;;;5043945;28;20340;-61
2023/07/22 03:30:23;;;;;;;11.07;8.40;;;;;;;;;;5032876;28;20482;-61
2023/07/22 03:32:50;;;;;;;11.10;7.95;;;;;;;;;;5032273;28;20135;-61
2023/07/22 03:35:17;;;;;;;10.45;7.53;;;;;;;;;;5048249;28;20048;-61
2023/07/22 03:37:44;;;;;;;12.48;8.77;;;;;;;;;;5052838;28;20049;-62
2023/07/22 03:40:17;;;;;;;11.00;8.13;;;;;;;;;;5050434;28;20393;-61
2023/07/22 03:42:44;;;;;;;9.60;7.75;;;;;;;;;;5038244;28;20128;-62
2023/07/22 03:45:12;;;;;;;9.55;7.38;;;;;;;;;;5032816;28;20065;-61
2023/07/22 03:47:39;;;;;;;8.15;7.10;;;;;;;;;;5036256;28;20041;-61
2023/07/22 03:50:07;;;;;;;10.45;7.68;;;;;;;;;;5049369;28;20057;-62
2023/07/22 03:52:34;;;;;;;9.73;7.25;;;;;;;;;;5045767;28;20061;-62
2023/07/22 03:55:00;;;;;;;10.50;7.78;;;;;;;;;;5052073;28;20517;-61
2023/07/22 03:57:28;;;;;;;11.00;8.10;;;;;;;;;;5048261;28;20070;-62
2023/07/22 03:59:54;;;;;;;10.30;7.70;;;;;;;;;;5052205;28;20078;-62
2023/07/22 04:02:23;;;;;;;9.20;7.82;;;;;;;;;;5047329;28;20505;-61
2023/07/22 04:04:50;;;;;;;8.73;7.60;;;;;;;;;;5041375;28;20056;-62
2023/07/22 04:07:17;;;;;;;9.40;7.78;;;;;;;;;;5034081;28;20045;-62
2023/07/22 04:09:44;;;;;;;12.90;8.00;;;;;;;;;;5038431;28;20413;-62
2023/07/22 04:12:11;;;;;;;9.20;7.30;;;;;;;;;;5036200;28;20061;-62
2023/07/22 04:14:39;;;;;;;10.30;8.13;;;;;;;;;;5032224;28;20069;-62
2023/07/22 04:17:05;;;;;;;10.27;7.40;;;;;;;;;;5031560;28;20053;-62
2023/07/22 04:19:34;;;;;;;9.35;6.97;;;;;;;;;;5049108;28;20049;-62
2023/07/22 04:22:03;;;;;;;9.48;7.53;;;;;;;;;;5041656;28;20049;-61
2023/07/22 04:24:30;;;;;;;11.20;7.50;;;;;;;;;;5072152;28;20048;-62
2023/07/22 04:26:57;;;;;;;9.63;7.75;;;;;;;;;;5061270;28;20049;-62
2023/07/22 04:29:24;;;;;;;8.82;7.20;;;;;;;;;;5052417;28;20057;-61
2023/07/22 04:31:51;;;;;;;10.70;7.57;;;;;;;;;;5050861;28;20049;-61
2023/07/22 04:34:18;;;;;;;8.60;6.70;;;;;;;;;;5049178;28;20064;-61
2023/07/22 04:36:46;;;;;;;9.60;7.32;;;;;;;;;;5050977;28;20080;-61
2023/07/22 04:39:13;;;;;;;11.13;7.07;;;;;;;;;;5049394;28;20060;-61
2023/07/22 04:41:40;;;;;;;8.52;7.50;;;;;;;;;;5032783;28;20057;-62
2023/07/22 04:44:07;;;;;;;10.18;6.90;;;;;;;;;;5042629;28;20053;-62
2023/07/22 04:46:35;;;;;;;10.00;7.13;;;;;;;;;;5031363;28;20068;-62
2023/07/22 04:49:02;;;;;;;8.35;6.75;;;;;;;;;;5039772;28;20417;-62
2023/07/22 04:51:29;;;;;;;9.90;7.60;;;;;;;;;;5046357;28;20045;-62
2023/07/22 04:53:57;;;;;;;12.80;7.90;;;;;;;;;;5035125;28;20498;-62
2023/07/22 04:56:24;;;;;;;10.13;7.57;;;;;;;;;;5039958;28;20045;-62
2023/07/22 04:58:51;;;;;;;8.20;6.65;;;;;;;;;;5052996;28;20052;-62
2023/07/22 05:01:17;;;;;;;8.98;6.80;;;;;;;;;;5035796;28;20064;-62
2023/07/22 05:03:44;;;;;;;9.00;6.88;;;;;;;;;;5051047;28;20502;-62
2023/07/22 05:06:11;;;;;;;8.23;6.07;;;;;;;;;;5054935;28;20048;-61
2023/07/22 05:08:38;;;;;;;10.00;7.00;;;;;;;;;;5051996;28;20052;-62
2023/07/22 05:11:07;;;;;;;10.20;8.13;;;;;;;;;;5053250;28;20057;-62
2023/07/22 05:13:34;;;;;;;8.15;6.43;;;;;;;;;;5054682;28;20056;-62
2023/07/22 05:16:01;;;;;;;10.73;7.45;;;;;;;;;;5048241;28;20061;-62
2023/07/22 05:18:28;;;;;;;8.52;7.60;;;;;;;;;;5052098;28;20053;-62
2023/07/22 05:20:54;;;;;;;8.95;6.93;;;;;;;;;;5046082;28;20395;-62
2023/07/22 05:23:21;;;;;;;9.85;6.88;;;;;;;;;;5055116;28;20068;-62
2023/07/22 05:25:51;;;;;;;8.30;6.22;;;;;;;;;;5044809;28;20060;-62
2023/07/22 05:28:19;;;;;;;8.65;6.55;;;;;;;;;;5054996;28;20045;-62
2023/07/22 05:30:46;;;;;;;7.35;6.38;;;;;;;;;;5045675;28;20064;-62
2023/07/22 05:33:13;;;;;;;9.48;7.25;;;;;;;;;;5044854;28;20053;-62
2023/07/22 05:35:40;;;;;;;8.90;6.47;;;;;;;;;;5043742;28;20049;-62
2023/07/22 05:38:06;;;;;;;8.48;6.35;;;;;;;;;;5034771;28;20056;-62
2023/07/22 05:40:33;;;;;;;8.63;6.47;;;;;;;;;;5042094;28;20057;-62
2023/07/22 05:43:00;;;;;;;9.43;7.30;;;;;;;;;;5054439;28;20049;-62
2023/07/22 05:45:29;;;;;;;9.30;6.95;;;;;;;;;;5048462;28;20053;-61
2023/07/22 05:47:55;;;;;;;8.50;6.72;;;;;;;;;;5029790;23;20379;-79
2023/07/22 05:50:22;;;;;;;8.38;6.20;;;;;;;;;;5004089;28;20061;-78
2023/07/22 05:52:49;;;;;;;9.27;5.95;;;;;;;;;;5001310;28;20050;-80
2023/07/22 05:55:16;;;;;;;10.68;6.88;;;;;;;;;;4998222;28;20089;-80
2023/07/22 05:57:43;;;;;;;7.90;6.65;;;;;;;;;;4995814;28;20046;-80
2023/07/22 06:00:13;;;;;;;9.43;6.80;;;;;;;;;;4998382;28;20320;-79
2023/07/22 06:02:41;;;;;;;7.20;6.25;;;;;;;;;;5000807;28;21614;-80
2023/07/22 06:05:08;;;;;;;6.93;5.80;;;;;;;;;;5001328;28;20054;-81
2023/07/22 06:07:35;;;;;;;7.75;6.22;;;;;;;;;;5001171;28;20061;-80
2023/07/22 06:10:01;;;;;;;7.55;6.00;;;;;;;;;;5004500;28;20057;-79
2023/07/22 06:12:29;;;;;;;7.45;5.75;;;;;;;;;;5018039;28;20061;-80
2023/07/22 06:14:55;;;;;;;7.72;6.43;;;;;;;;;;5017336;28;20045;-80
2023/07/22 06:17:22;;;;;;;9.15;6.80;;;;;;;;;;5019654;28;20054;-80
2023/07/22 06:19:50;;;;;;;7.53;6.30;;;;;;;;;;5026093;28;20396;-79
2023/07/22 06:22:17;;;;;;;8.05;6.20;;;;;;;;;;5047448;28;20048;-80
2023/07/22 06:24:44;;;;;;;6.60;5.65;;;;;;;;;;5052931;28;20060;-77
2023/07/22 06:27:12;;;;;;;7.53;5.97;;;;;;;;;;5053703;28;20052;-79
2023/07/22 06:29:39;;;;;;;7.18;5.93;;;;;;;;;;5050623;28;20063;-78
2023/07/22 06:32:06;;;;;;;7.90;6.03;;;;;;;;;;5033738;28;20049;-78
2023/07/22 06:34:33;;;;;;;7.20;5.50;;;;;;;;;;5033797;28;20049;-78
2023/07/22 06:37:01;;;;;;;6.85;5.50;;;;;;;;;;5033296;28;20061;-78
2023/07/22 06:39:28;;;;;;;7.20;5.47;;;;;;;;;;5040272;28;20512;-80
2023/07/22 06:41:55;;;;;;;6.50;5.38;;;;;;;;;;5038163;28;20487;-80
2023/07/22 06:44:22;;;;;;;8.05;5.57;;;;;;;;;;5033447;28;20057;-80
2023/07/22 06:46:48;;;;;;;6.35;5.75;;;;;;;;;;5031435;28;20049;-81
2023/07/22 06:49:15;;;;;;;6.28;5.40;;;;;;;;;;5019334;28;20061;-82
2023/07/22 06:51:42;;;;;;;10.02;5.75;;;;;;;;;;5020303;28;20045;-80
2023/07/22 06:54:10;;;;;;;7.60;5.60;;;;;;;;;;5023201;28;20080;-80
2023/07/22 06:56:37;;;;;;;8.07;5.38;;;;;;;;;;5022304;28;20057;-81
2023/07/22 06:59:04;;;;;;;7.97;5.13;;;;;;;;;;5021933;28;20415;-80
2023/07/22 07:01:31;;;;;;;9.00;6.13;;;;;;;;;;5019346;28;20064;-81
2023/07/22 07:03:57;;;;;;;6.35;5.60;;;;;;;;;;5018674;28;20053;-81
2023/07/22 07:06:24;;;;;;;7.28;5.70;;;;;;;;;;5023813;28;20068;-80
2023/07/22 07:08:52;;;;;;;6.45;5.50;;;;;;;;;;5018444;28;20089;-79
2023/07/22 07:11:20;;;;;;;6.65;5.40;;;;;;;;;;5017155;28;20503;-81
2023/07/22 07:13:47;;;;;;;6.45;5.40;;;;;;;;;;5021815;28;20048;-79
2023/07/22 07:16:23;;;;;;;6.40;5.45;;;;;;;;;;5019751;28;20049;-80
2023/07/22 07:18:50;;;;;;;8.90;5.55;;;;;;;;;;5024984;28;20050;-79
2023/07/22 07:21:17;;;;;;;9.20;5.72;;;;;;;;;;5029668;28;20049;-78
2023/07/22 07:23:44;;;;;;;7.75;5.25;;;;;;;;;;5021793;28;20038;-80
2023/07/22 07:26:11;;;;;;;7.78;5.18;;;;;;;;;;5024668;28;20053;-79
2023/07/22 07:28:39;;;;;;;7.60;5.13;;;;;;;;;;5019465;28;20466;-80
2023/07/22 07:31:06;;;;;;;6.70;5.40;;;;;;;;;;5022287;28;20052;-79
2023/07/22 07:33:33;;;;;;;6.95;5.20;;;;;;;;;;5023049;28;20065;-78
2023/07/22 07:36:00;;;;;;;6.45;5.25;;;;;;;;;;5033451;28;20126;-81
2023/07/22 07:38:28;;;;;;;7.32;5.07;;;;;;;;;;5024912;28;20064;-79
2023/07/22 07:40:56;;;;;;;8.90;5.18;;;;;;;;;;5026670;28;20053;-79
2023/07/22 07:43:23;;;;;;;6.72;5.00;;;;;;;;;;5026729;28;20057;-78
2023/07/22 07:45:51;;;;;;;9.18;5.78;;;;;;;;;;5031882;28;20049;-78
2023/07/22 07:48:19;;;;;;;7.70;5.00;;;;;;;;;;5021644;28;20045;-79
2023/07/22 07:50:45;;;;;;;7.90;5.95;;;;;;;;;;5012549;28;20499;-78
2023/07/22 07:53:12;;;;;;;7.07;4.85;;;;;;;;;;5027537;28;20061;-79
2023/07/22 07:55:39;;;;;;;6.22;4.90;;;;;;;;;;5025579;28;20054;-79
2023/07/22 07:58:06;;;;;;;7.45;5.50;;;;;;;;;;5014866;28;20054;-78
2023/07/22 08:00:33;;;;;;;6.32;5.47;;;;;;;;;;5020321;28;20056;-78
2023/07/22 08:03:01;;;;;;;6.35;5.40;;;;;;;;;;5025983;28;20050;-79
2023/07/22 08:05:28;;;;;;;8.93;5.40;;;;;;;;;;5028882;28;20077;-78
2023/07/22 08:07:55;;;;;;;7.20;5.60;;;;;;;;;;5031417;28;20057;-78
2023/07/22 08:10:22;;;;;;;7.47;6.00;;;;;;;;;;5031966;28;20054;-78
2023/07/22 08:12:48;;;;;;;8.60;5.72;;;;;;;;;;5020085;28;20050;-78
2023/07/22 08:15:15;;;;;;;6.35;5.70;;;;;;;;;;5012034;28;20056;-78
2023/07/22 08:17:42;;;;;;;7.43;5.50;;;;;;;;;;5012641;28;20403;-78
2023/07/22 08:20:12;;;;;;;8.00;6.00;;;;;;;;;;5012057;28;20058;-78
2023/07/22 08:22:39;;;;;;;6.72;5.63;;;;;;;;;;5031865;28;20056;-78
2023/07/22 08:25:06;;;;;;;8.05;6.47;;;;;;;;;;5036064;28;20053;-79
2023/07/22 08:27:34;;;;;;;166.55;60.53;;;;;;;;;;5036050;28;20053;-78
2023/07/22 08:30:01;;;;;;;7.72;5.75;;;;;;;;;;5024194;28;20054;-78
2023/07/22 08:32:28;;;;;;;6.35;5.15;;;;;;;;;;5015526;28;20045;-78
2023/07/22 08:34:54;;;;;;;5.68;5.07;;;;;;;;;;5019159;28;20053;-78
2023/07/22 08:37:23;;;;;;;6.25;5.00;;;;;;;;;;5034991;28;20065;-78
2023/07/22 08:39:49;;;;;;;6.25;5.65;;;;;;;;;;5034894;28;20042;-78
2023/07/22 08:42:19;;;;;;;12.10;5.75;;;;;;;;;;5026441;28;20054;-78
2023/07/22 08:44:47;;;;;;;5.60;5.07;;;;;;;;;;5027297;28;20068;-78
2023/07/22 08:47:16;;;;;;;5.05;4.55;;;;;;;;;;5033892;28;20060;-79
2023/07/22 08:49:45;;;;;;;6.05;5.15;;;;;;;;;;5014899;28;20046;-78
2023/07/22 08:52:11;;;;;;;;;;;;;;;;;;5022794;28;20056;-78
2023/07/22 08:54:39;;;;;;;5.68;5.18;;;;;;;;;;5030521;28;19925;-78
2023/07/22 08:57:06;;;;;;;5.72;4.70;;;;;;;;;;5015448;28;20395;-78
2023/07/22 08:59:33;;;;;;;6.82;5.07;;;;;;;;;;5015306;28;20049;-78
2023/07/22 09:02:00;;;;;;;6.07;4.85;;;;;;;;;;5018083;28;20049;-78
2023/07/22 09:04:27;;;;;;;5.47;4.82;;;;;;;;;;5020330;28;20157;-79
2023/07/22 09:06:55;;;;;;;5.85;4.72;;;;;;;;;;5027410;28;20053;-80
2023/07/22 09:09:23;;;;;;;4.93;4.28;;;;;;;;;;5028014;28;20046;-80
2023/07/22 09:11:53;;;;;;;5.30;4.75;;;;;;;;;;5025423;28;20049;-81
2023/07/22 09:14:20;;;;;;;5.50;4.72;;;;;;;;;;5020659;28;20872;-81
2023/07/22 09:16:47;;;;;;;5.50;4.55;;;;;;;;;;5022249;28;20050;-79
2023/07/22 09:19:14;;;;;;;5.53;4.57;;;;;;;;;;5020135;28;22103;-82
2023/07/22 09:21:40;;;;;;;4.75;4.25;;;;;;;;;;5027685;28;20062;-77
2023/07/22 09:24:21;;;;;;;6.07;4.88;;;;;;;;;;5019297;28;20064;-78
2023/07/22 09:26:47;;;;;;;5.75;4.90;;;;;;;;;;5023833;28;20056;-78
2023/07/22 09:29:16;;;;;;;4.75;4.35;;;;;;;;;;5028249;28;20049;-78
2023/07/22 09:31:49;;;;;;;5.10;4.32;;;;;;;;;;5023662;28;20052;-79
2023/07/22 09:34:16;;;;;;;6.50;4.20;;;;;;;;;;5016932;28;20399;-80
2023/07/22 09:36:50;;;;;;;5.82;4.30;;;;;;;;;;5025755;28;20486;-82
2023/07/22 09:39:18;;;;;;;4.53;3.85;;;;;;;;;;5026182;28;20167;-82
2023/07/22 09:41:45;;;;;;;7.55;4.10;;;;;;;;;;5019703;28;20069;-83
2023/07/22 09:44:12;;;;;;;5.63;4.75;;;;;;;;;;5015041;28;20054;-82
2023/07/22 09:46:40;;;;;;;4.32;3.92;;;;;;;;;;5021434;28;20426;-79
2023/07/22 09:49:08;;;;;;;6.00;4.45;;;;;;;;;;5032694;28;20049;-81
2023/07/22 09:51:35;;;;;;;5.70;3.90;;;;;;;;;;5029587;28;20513;-79
2023/07/22 09:54:03;;;;;;;5.95;3.85;;;;;;;;;;5024849;28;20050;-79
2023/07/22 09:56:30;;;;;;;4.85;3.90;;;;;;;;;;5014349;28;20054;-78
2023/07/22 09:58:59;;;;;;;4.63;3.80;;;;;;;;;;5039020;28;20061;-77
2023/07/22 10:01:26;;;;;;;4.88;4.10;;;;;;;;;;5042617;28;20046;-78
2023/07/22 10:03:55;;;;;;;5.57;3.90;;;;;;;;;;5033110;28;20060;-79
2023/07/22 10:06:24;;;;;;;8.10;4.15;;;;;;;;;;5031129;28;20056;-78
2023/07/22 10:08:51;;;;;;;6.22;4.10;;;;;;;;;;5053654;28;20394;-82
2023/07/22 10:11:19;;;;;;;5.43;4.20;;;;;;;;;;5030495;28;20045;-82
2023/07/22 10:13:46;;;;;;;5.43;3.72;;;;;;;;;;5033064;28;20064;-79
2023/07/22 10:16:13;;;;;;;3.92;3.55;;;;;;;;;;5033350;28;20080;-81
2023/07/22 10:18:41;;;;;;;5.15;4.18;;;;;;;;;;5029524;28;20065;-79
2023/07/22 10:21:10;;;;;;;6.03;4.50;;;;;;;;;;5052289;28;20048;-80
2023/07/22 10:23:39;;;;;;;4.35;3.67;;;;;;;;;;5038903;28;20060;-81
2023/07/22 10:26:06;;;;;;;4.53;4.05;;;;;;;;;;5019490;28;20060;-81
2023/07/22 10:28:33;;;;;;;6.07;4.43;;;;;;;;;;5028118;28;20061;-79
2023/07/22 10:31:07;;;;;;;4.65;4.07;;;;;;;;;;5024584;28;20046;-80
2023/07/22 10:33:35;;;;;;;4.82;3.92;;;;;;;;;;5036295;28;20486;-80
2023/07/22 10:36:03;;;;;;;6.47;4.50;;;;;;;;;;5043391;28;20056;-78
2023/07/22 10:38:31;;;;;;;6.40;4.40;;;;;;;;;;5047739;28;20499;-78
2023/07/22 10:40:58;;;;;;;4.10;3.58;;;;;;;;;;5053038;28;20052;-78
2023/07/22 10:43:26;;;;;;;3.63;3.30;;;;;;;;;;5034489;28;20427;-79
2023/07/22 10:45:53;;;;;;;4.95;3.90;;;;;;;;;;5032300;28;20050;-79
2023/07/22 10:48:21;;;;;;;5.45;3.80;;;;;;;;;;5032607;28;20057;-79
2023/07/22 10:50:48;;;;;;;5.13;3.67;;;;;;;;;;5033145;28;20072;-79
2023/07/22 10:53:21;;;;;;;4.90;3.40;;;;;;;;;;5018509;28;20494;-79
2023/07/22 10:56:09;;;;;;;5.15;3.53;;;;;;;;;;5013386;28;20046;-79
2023/07/22 10:58:56;;;;;;;5.35;3.28;;;;;;;;;;5011391;28;20475;-80
2023/07/22 11:01:25;;;;;;;5.25;3.20;;;;;;;;;;5013062;28;20056;-79
2023/07/22 11:04:05;;;;;;;6.80;3.85;;;;;;;;;;5013273;28;20060;-79
2023/07/22 11:06:32;;;;;;;4.82;3.53;;;;;;;;;;5043147;28;20060;-79
2023/07/22 11:08:58;;;;;;;4.82;3.72;;;;;;;;;;5035574;28;20053;-79
2023/07/22 11:11:35;;;;;;;4.00;3.05;;;;;;;;;;5052691;28;20049;-79
2023/07/22 11:14:14;;;;;;;6.50;3.80;;;;;;;;;;5052438;28;20057;-79
2023/07/22 11:16:42;;;;;;;5.22;3.72;;;;;;;;;;5052526;28;20387;-79
2023/07/22 11:19:09;;;;;;;3.97;3.23;;;;;;;;;;5052629;28;20053;-80
2023/07/22 11:21:36;;;;;;;5.40;3.40;;;;;;;;;;5052223;28;20053;-79
2023/07/22 11:24:04;;;;;;;4.28;3.63;;;;;;;;;;5044064;28;20509;-79
2023/07/22 11:26:30;;;;;;;4.55;3.90;;;;;;;;;;5042608;28;20399;-79
2023/07/22 11:28:58;;;;;;;4.53;3.17;;;;;;;;;;5052024;28;20057;-80
2023/07/22 11:31:32;;;;;;;4.57;3.05;;;;;;;;;;5051736;28;20489;-80
2023/07/22 11:33:59;;;;;;;3.58;3.08;;;;;;;;;;5052827;28;20060;-80
2023/07/22 11:36:26;;;;;;;3.08;2.70;;;;;;;;;;5052254;28;20563;-80
2023/07/22 11:38:54;;;;;;;4.43;3.35;;;;;;;;;;5047178;28;20410;-80
2023/07/22 11:41:21;;;;;;;3.97;3.15;;;;;;;;;;5050997;28;20049;-80
2023/07/22 11:43:48;;;;;;;6.25;3.10;;;;;;;;;;5031699;28;20062;-80
2023/07/22 11:46:14;;;;;;;4.28;3.03;;;;;;;;;;5049659;28;20383;-79
2023/07/22 11:48:51;;;;;;;4.10;2.80;;;;;;;;;;5051730;28;20052;-79
2023/07/22 11:51:18;;;;;;;3.85;2.83;;;;;;;;;;5052209;28;20041;-80
2023/07/22 11:53:47;;;;;;;3.35;3.00;;;;;;;;;;5028961;28;20061;-81
2023/07/22 11:56:18;;;;;;;5.00;3.00;;;;;;;;;;5024644;28;20058;-79
2023/07/22 11:58:49;;;;;;;4.13;2.70;;;;;;;;;;5014477;28;20061;-79
2023/07/22 12:01:16;;;;;;;4.30;3.38;;;;;;;;;;5017524;28;20053;-80
2023/07/22 12:03:43;;;;;;;3.80;2.95;;;;;;;;;;5030661;28;20053;-80
2023/07/22 12:06:11;;;;;;;5.18;3.00;;;;;;;;;;5025851;28;20053;-79
2023/07/22 12:08:43;;;;;;;5.60;3.30;;;;;;;;;;5043452;28;20053;-79
2023/07/22 12:11:16;;;;;;;6.57;3.17;;;;;;;;;;5034006;28;20060;-79
2023/07/22 12:13:46;;;;;;;4.35;3.08;;;;;;;;;;5033220;28;20054;-80
2023/07/22 12:16:13;;;;;;;6.35;2.88;;;;;;;;;;5034772;28;20080;-79
2023/07/22 12:18:43;;;;;;;3.67;2.97;;;;;;;;;;5026774;28;20061;-79
2023/07/22 12:21:11;;;;;;;4.82;3.10;;;;;;;;;;5027745;28;20045;-79
2023/07/22 12:23:37;;;;;;;;;;;;;;;;;;5030109;28;20053;-79
2023/07/22 12:26:04;;;;;;;3.67;3.00;;;;;;;;;;5034404;28;20306;-79
2023/07/22 12:28:31;;;;;;;2.97;2.45;;;;;;;;;;5035299;28;20065;-79
2023/07/22 12:30:58;;;;;;;4.35;2.63;;;;;;;;;;5033390;28;20046;-79
2023/07/22 12:33:25;;;;;;;3.47;2.70;;;;;;;;;;5025363;28;20056;-79
2023/07/22 12:35:52;;;;;;;4.05;2.63;;;;;;;;;;5034534;28;20060;-80
2023/07/22 12:38:20;;;;;;;3.22;2.53;;;;;;;;;;5033355;28;20066;-80
2023/07/22 12:40:47;;;;;;;3.65;2.45;;;;;;;;;;5029054;28;20045;-80
2023/07/22 12:43:14;;;;;;;4.05;2.40;;;;;;;;;;5033001;28;20422;-80
2023/07/22 12:45:41;;;;;;;3.75;2.60;;;;;;;;;;5027773;28;20064;-82
2023/07/22 12:48:07;;;;;;;2.95;2.65;;;;;;;;;;5020193;28;20070;-81
2023/07/22 12:50:34;;;;;;;4.28;2.67;;;;;;;;;;5028903;28;20049;-80
2023/07/22 12:53:01;;;;;;;3.55;2.65;;;;;;;;;;5034116;28;20398;-81
2023/07/22 12:55:29;;;;;;;4.13;2.22;;;;;;;;;;5033609;28;20057;-80
2023/07/22 12:57:56;;;;;;;3.15;2.28;;;;;;;;;;5034014;28;20064;-80
2023/07/22 13:00:23;;;;;;;3.40;2.45;;;;;;;;;;5031517;28;20052;-80
2023/07/22 13:02:50;;;;;;;4.72;2.30;;;;;;;;;;5033247;28;20391;-80
2023/07/22 13:05:17;;;;;;;3.78;2.55;;;;;;;;;;5031234;28;20049;-80
2023/07/22 13:07:44;;;;;;;3.22;2.35;;;;;;;;;;5024003;28;20160;-81
2023/07/22 13:10:15;;;;;;;3.17;2.53;;;;;;;;;;5038804;28;20510;-85
2023/07/22 13:12:43;;;;;;;3.22;2.20;;;;;;;;;;5033025;28;20062;-81
2023/07/22 13:15:10;;;;;;;2.65;2.20;;;;;;;;;;5033195;28;20107;-77
2023/07/22 13:17:38;;;;;;;2.75;2.10;;;;;;;;;;5031635;28;20058;-83
2023/07/22 13:20:06;;;;;;;3.77;2.47;;;;;;;;;;5034646;28;20099;-81
2023/07/22 13:22:33;;;;;;;4.18;2.50;;;;;;;;;;5031050;28;20045;-82
2023/07/22 13:25:00;;;;;;;3.65;2.22;;;;;;;;;;5027524;28;20045;-78
2023/07/22 13:27:30;;;;;;;4.40;2.28;;;;;;;;;;5031871;28;20414;-78
2023/07/22 13:29:59;;;;;;;4.13;2.22;;;;;;;;;;5029840;28;20056;-78
2023/07/22 13:32:37;;;;;;;;;;;;;;;;;;5044803;28;20057;-78
2023/07/22 13:35:04;;;;;;;3.60;2.60;;;;;;;;;;5053773;28;20282;-78
2023/07/22 13:37:31;;;;;;;3.70;2.20;;;;;;;;;;5053990;28;20061;-78
2023/07/22 13:39:58;;;;;;;3.00;2.35;;;;;;;;;;5054028;28;20064;-78
2023/07/22 13:42:24;;;;;;;3.60;2.42;;;;;;;;;;5043995;28;20410;-78
2023/07/22 13:44:53;;;;;;;3.70;2.50;;;;;;;;;;5034112;28;20061;-78
2023/07/22 13:47:21;;;;;;;4.07;2.47;;;;;;;;;;5034132;28;20058;-78
2023/07/22 13:49:48;;;;;;;3.83;2.38;;;;;;;;;;5034476;28;20061;-78
2023/07/22 13:52:15;;;;;;;4.40;2.40;;;;;;;;;;5034289;28;20056;-78
2023/07/22 13:54:42;;;;;;;4.97;2.22;;;;;;;;;;5034213;28;20049;-78
2023/07/22 13:57:09;;;;;;;4.00;2.40;;;;;;;;;;5033740;28;20056;-78
2023/07/22 13:59:35;;;;;;;3.58;2.15;;;;;;;;;;5034157;28;20068;-78
2023/07/22 14:02:03;;;;;;;3.35;2.10;;;;;;;;;;5033899;28;20068;-78
2023/07/22 14:04:31;;;;;;;3.17;2.42;;;;;;;;;;5033969;28;20061;-78
2023/07/22 14:06:58;;;;;;;2.95;2.30;;;;;;;;;;5034186;28;20414;-78
2023/07/22 14:09:25;;;;;;;2.58;1.98;;;;;;;;;;5033945;28;20470;-78
2023/07/22 14:11:52;;;;;;;3.35;2.33;;;;;;;;;;5033106;28;20068;-78
2023/07/22 14:14:19;;;;;;;2.55;2.22;;;;;;;;;;5034369;28;20057;-78
2023/07/22 14:16:46;;;;;;;7.30;2.40;;;;;;;;;;5033894;28;20059;-78
2023/07/22 14:19:13;;;;;;;3.55;2.30;;;;;;;;;;5033140;28;20060;-78
2023/07/22 14:21:41;;;;;;;4.15;2.65;;;;;;;;;;5032900;28;20050;-78
2023/07/22 14:24:08;;;;;;;3.65;2.17;;;;;;;;;;5034771;28;20467;-78
2023/07/22 14:26:35;;;;;;;3.95;2.60;;;;;;;;;;5033683;28;20061;-79
2023/07/22 14:29:02;;;;;;;3.95;2.42;;;;;;;;;;5033467;28;20060;-78
2023/07/22 14:31:28;;;;;;;3.15;1.85;;;;;;;;;;5033040;28;20053;-78
2023/07/22 14:33:55;;;;;;;2.88;2.50;;;;;;;;;;5033662;28;20078;-78
2023/07/22 14:36:22;;;;;;;3.08;2.13;;;;;;;;;;5033130;28;20061;-79
2023/07/22 14:38:50;;;;;;;3.20;2.17;;;;;;;;;;5033158;28;20056;-79
2023/07/22 14:41:17;;;;;;;4.32;2.50;;;;;;;;;;5033515;28;20050;-78
2023/07/22 14:43:44;;;;;;;3.90;2.03;;;;;;;;;;5033216;28;20061;-78